createdAt,value
2023-11-24T00:01:55.297Z,7.10
2023-11-24T00:04:22.580Z,7.00
2023-11-24T00:06:52.460Z,6.90
2023-11-24T00:09:20.418Z,6.90
2023-11-24T00:11:47.830Z,6.80
2023-11-24T00:14:16.358Z,6.80
2023-11-24T00:16:43.629Z,6.80
2023-11-24T00:19:15.347Z,6.70
2023-11-24T00:21:45.640Z,6.70
2023-11-24T00:24:12.747Z,6.60
2023-11-24T00:26:40.610Z,6.60
2023-11-24T00:29:08.116Z,6.50
2023-11-24T00:31:35.313Z,6.50
2023-11-24T00:34:02.769Z,6.40
2023-11-24T00:36:30.213Z,6.30
2023-11-24T00:38:57.390Z,6.20
2023-11-24T00:41:24.464Z,6.00
2023-11-24T00:43:51.664Z,6.00
2023-11-24T00:46:19.745Z,5.90
2023-11-24T00:48:46.882Z,5.80
2023-11-24T00:51:14.587Z,5.80
2023-11-24T00:53:42.049Z,5.70
2023-11-24T00:56:10.066Z,5.60
2023-11-24T00:58:37.227Z,5.60
2023-11-24T01:01:04.298Z,5.60
2023-11-24T01:03:32.407Z,5.50
2023-11-24T01:05:59.715Z,5.50
2023-11-24T01:08:26.868Z,5.50
2023-11-24T01:10:56.338Z,5.40
2023-11-24T01:13:23.605Z,5.40
2023-11-24T01:15:51.298Z,5.50
2023-11-24T01:18:19.620Z,5.40
2023-11-24T01:20:47.285Z,5.40
2023-11-24T01:23:14.736Z,5.40
2023-11-24T01:25:42.574Z,5.30
2023-11-24T01:28:11.617Z,5.30
2023-11-24T01:30:38.987Z,5.30
2023-11-24T01:33:06.154Z,5.30
2023-11-24T01:35:33.288Z,5.30
2023-11-24T01:38:00.920Z,5.30
2023-11-24T01:40:28.141Z,5.30
2023-11-24T01:42:55.411Z,5.30
2023-11-24T01:45:22.970Z,5.30
2023-11-24T01:47:50.088Z,5.30
2023-11-24T01:50:17.771Z,5.30
2023-11-24T01:52:45.310Z,5.20
2023-11-24T01:55:17.378Z,5.20
2023-11-24T01:57:46.006Z,5.20
2023-11-24T02:00:17.274Z,5.20
2023-11-24T02:02:44.781Z,5.20
2023-11-24T02:05:16.131Z,5.20
2023-11-24T02:07:43.862Z,5.20
2023-11-24T02:10:15.777Z,5.20
2023-11-24T02:12:43.010Z,5.20
2023-11-24T02:15:10.918Z,5.20
2023-11-24T02:17:38.614Z,5.20
2023-11-24T02:20:12.875Z,5.20
2023-11-24T02:22:43.867Z,5.20
2023-11-24T02:25:12.400Z,5.30
2023-11-24T02:27:39.902Z,5.30
2023-11-24T02:30:08.105Z,5.30
2023-11-24T02:32:35.426Z,5.30
2023-11-24T02:35:04.166Z,5.20
2023-11-24T02:37:31.296Z,5.20
2023-11-24T02:39:58.546Z,5.20
2023-11-24T02:42:26.092Z,5.20
2023-11-24T02:44:53.333Z,5.20
2023-11-24T02:47:20.596Z,5.20
2023-11-24T02:49:48.227Z,5.20
2023-11-24T02:52:15.693Z,5.20
2023-11-24T02:54:42.766Z,5.20
2023-11-24T02:57:10.647Z,5.20
2023-11-24T02:59:37.744Z,5.20
2023-11-24T03:02:05.019Z,5.20
2023-11-24T03:04:32.218Z,5.20
2023-11-24T03:06:59.459Z,5.20
2023-11-24T03:09:27.490Z,5.20
2023-11-24T03:11:54.735Z,5.20
2023-11-24T03:14:22.085Z,5.20
2023-11-24T03:16:49.763Z,5.20
2023-11-24T03:19:18.034Z,5.20
2023-11-24T03:21:45.817Z,5.20
2023-11-24T03:24:13.149Z,5.10
2023-11-24T03:26:40.278Z,5.10
2023-11-24T03:29:07.517Z,5.10
2023-11-24T03:31:34.823Z,5.10
2023-11-24T03:34:02.758Z,5.10
2023-11-24T03:36:29.925Z,5.10
2023-11-24T03:38:56.947Z,5.10
2023-11-24T03:41:24.196Z,5.10
2023-11-24T03:43:51.256Z,5.10
2023-11-24T03:46:18.508Z,5.10
2023-11-24T03:48:45.981Z,5.10
2023-11-24T03:51:17.829Z,5.00
2023-11-24T03:53:45.330Z,5.00
2023-11-24T03:56:15.663Z,5.00
2023-11-24T03:58:43.608Z,5.00
2023-11-24T04:01:15.297Z,4.90
2023-11-24T04:03:48.098Z,4.90
2023-11-24T04:06:16.262Z,4.90
2023-11-24T04:08:44.363Z,4.90
2023-11-24T04:11:11.923Z,4.90
2023-11-24T04:13:39.218Z,4.90
2023-11-24T04:16:07.848Z,4.90
2023-11-24T04:18:35.158Z,4.90
2023-11-24T04:21:02.204Z,4.90
2023-11-24T04:23:29.308Z,4.80
2023-11-24T04:25:56.382Z,4.80
2023-11-24T04:28:23.453Z,4.80
2023-11-24T04:30:50.703Z,4.80
2023-11-24T04:33:17.766Z,4.80
2023-11-24T04:35:44.813Z,4.80
2023-11-24T04:38:12.166Z,4.80
2023-11-24T04:40:39.273Z,4.80
2023-11-24T04:43:06.509Z,4.80
2023-11-24T04:45:33.766Z,4.80
2023-11-24T04:48:00.985Z,4.70
2023-11-24T04:50:28.377Z,4.70
2023-11-24T04:52:55.542Z,4.70
2023-11-24T04:55:22.789Z,4.70
2023-11-24T04:57:51.912Z,4.70
2023-11-24T05:00:19.966Z,4.70
2023-11-24T05:02:47.569Z,4.70
2023-11-24T05:05:14.785Z,4.70
2023-11-24T05:07:42.011Z,4.70
2023-11-24T05:10:09.616Z,4.70
2023-11-24T05:12:36.925Z,4.70
2023-11-24T05:15:09.772Z,4.70
2023-11-24T05:17:37.326Z,4.70
2023-11-24T05:20:14.096Z,4.70
2023-11-24T05:22:41.204Z,4.70
2023-11-24T05:25:09.164Z,4.70
2023-11-24T05:27:36.496Z,4.70
2023-11-24T05:30:09.072Z,4.70
2023-11-24T05:32:36.592Z,4.60
2023-11-24T05:35:04.173Z,4.70
2023-11-24T05:37:31.752Z,4.60
2023-11-24T05:39:59.132Z,4.70
2023-11-24T05:42:26.935Z,4.60
2023-11-24T05:44:54.220Z,4.70
2023-11-24T05:47:21.662Z,4.60
2023-11-24T05:49:49.713Z,4.60
2023-11-24T05:52:17.130Z,4.70
2023-11-24T05:54:44.387Z,4.60
2023-11-24T05:57:11.911Z,4.60
2023-11-24T05:59:40.497Z,4.60
2023-11-24T06:02:08.198Z,4.60
2023-11-24T06:04:35.833Z,4.60
2023-11-24T06:07:03.178Z,4.60
2023-11-24T06:09:31.316Z,4.60
2023-11-24T06:11:58.564Z,4.50
2023-11-24T06:14:25.965Z,4.50
2023-11-24T06:16:53.459Z,4.50
2023-11-24T06:19:20.690Z,4.50
2023-11-24T06:21:47.962Z,4.50
2023-11-24T06:24:15.773Z,4.50
2023-11-24T06:26:42.853Z,4.50
2023-11-24T06:29:10.043Z,4.50
2023-11-24T06:31:37.173Z,4.60
2023-11-24T06:34:04.693Z,4.60
2023-11-24T06:36:35.807Z,4.60
2023-11-24T06:39:04.839Z,4.60
2023-11-24T06:41:32.026Z,4.60
2023-11-24T06:43:59.169Z,4.60
2023-11-24T06:46:27.638Z,4.60
2023-11-24T06:48:54.907Z,4.60
2023-11-24T06:51:22.331Z,4.60
2023-11-24T06:53:49.613Z,4.60
2023-11-24T06:56:16.948Z,4.60
2023-11-24T06:58:44.164Z,4.60
2023-11-24T07:01:11.470Z,4.60
2023-11-24T07:03:39.454Z,4.60
2023-11-24T07:06:07.900Z,4.60
2023-11-24T07:08:35.056Z,4.60
2023-11-24T07:11:02.323Z,4.70
2023-11-24T07:13:29.543Z,4.70
2023-11-24T07:15:56.839Z,4.60
2023-11-24T07:18:24.648Z,4.50
2023-11-24T07:20:52.850Z,4.30
2023-11-24T07:23:20.788Z,4.30
2023-11-24T07:25:49.819Z,4.20
2023-11-24T07:28:17.209Z,4.20
2023-11-24T07:30:44.501Z,4.10
2023-11-24T07:33:12.389Z,4.10
2023-11-24T07:35:40.016Z,4.10
2023-11-24T07:38:07.159Z,4.10
2023-11-24T07:40:34.506Z,4.10
2023-11-24T07:43:02.140Z,4.10
2023-11-24T07:45:29.322Z,4.10
2023-11-24T07:47:56.562Z,4.20
2023-11-24T07:50:23.721Z,4.50
2023-11-24T07:52:52.069Z,5.00
2023-11-24T07:55:19.325Z,5.20
2023-11-24T07:57:46.641Z,5.20
2023-11-24T08:00:14.824Z,5.10
2023-11-24T08:02:43.797Z,4.90
2023-11-24T08:05:11.118Z,4.70
2023-11-24T08:07:38.887Z,4.60
2023-11-24T08:10:06.406Z,4.60
2023-11-24T08:12:33.679Z,4.50
2023-11-24T08:15:01.660Z,4.40
2023-11-24T08:17:29.516Z,4.40
2023-11-24T08:19:56.756Z,4.40
2023-11-24T08:22:24.088Z,4.50
2023-11-24T08:24:51.554Z,4.70
2023-11-24T08:27:19.669Z,5.00
2023-11-24T08:29:46.844Z,5.50
2023-11-24T08:32:14.220Z,5.70
2023-11-24T08:34:43.958Z,5.70
2023-11-24T08:37:11.521Z,5.50
2023-11-24T08:39:39.684Z,5.50
2023-11-24T08:42:07.354Z,5.60
2023-11-24T08:44:36.306Z,5.50
2023-11-24T08:47:04.993Z,5.50
2023-11-24T08:49:33.698Z,5.30
2023-11-24T08:52:00.939Z,5.10
2023-11-24T08:54:28.127Z,4.90
2023-11-24T08:56:55.254Z,4.80
2023-11-24T08:59:24.438Z,4.80
2023-11-24T09:01:51.909Z,4.90
2023-11-24T09:04:20.792Z,5.00
2023-11-24T09:06:48.109Z,5.00
2023-11-24T09:09:15.826Z,4.90
2023-11-24T09:11:42.926Z,4.80
2023-11-24T09:14:10.999Z,4.70
2023-11-24T09:16:38.854Z,4.60
2023-11-24T09:19:06.331Z,4.60
2023-11-24T09:21:35.361Z,4.90
2023-11-24T09:24:03.110Z,5.20
2023-11-24T09:26:30.794Z,5.20
2023-11-24T09:29:00.205Z,5.10
2023-11-24T09:31:27.529Z,5.10
2023-11-24T09:33:54.869Z,5.20
2023-11-24T09:36:22.019Z,5.60
2023-11-24T09:38:49.650Z,5.80
2023-11-24T09:41:17.086Z,5.80
2023-11-24T09:43:44.344Z,5.80
2023-11-24T09:46:14.223Z,6.00
2023-11-24T09:48:44.211Z,6.00
2023-11-24T09:51:13.502Z,5.80
2023-11-24T09:53:42.486Z,5.60
2023-11-24T09:56:09.781Z,5.40
2023-11-24T09:58:36.922Z,5.30
2023-11-24T10:01:17.081Z,5.20
2023-11-24T10:03:49.569Z,5.00
2023-11-24T10:06:17.539Z,4.80
2023-11-24T10:08:47.068Z,4.30
2023-11-24T10:11:16.841Z,3.80
2023-11-24T10:13:46.470Z,3.50
2023-11-24T10:16:14.582Z,3.10
2023-11-24T10:18:42.653Z,2.90
2023-11-24T10:21:23.549Z,2.70
2023-11-24T10:24:02.611Z,2.50
2023-11-24T10:26:30.884Z,2.40
2023-11-24T10:28:58.886Z,2.40
2023-11-24T10:31:27.271Z,2.40
2023-11-24T10:33:54.941Z,2.30
2023-11-24T10:36:26.708Z,2.30
2023-11-24T10:39:04.591Z,2.30
2023-11-24T10:41:34.250Z,2.30
2023-11-24T10:44:05.178Z,2.30
2023-11-24T10:46:36.406Z,2.30
2023-11-24T10:49:14.529Z,2.20
2023-11-24T10:51:48.411Z,2.20
2023-11-24T10:54:27.059Z,2.10
2023-11-24T10:57:00.194Z,2.10
2023-11-24T10:59:35.787Z,2.10
2023-11-24T11:02:08.331Z,2.00
2023-11-24T11:04:37.096Z,2.00
2023-11-24T11:07:40.876Z,2.10
2023-11-24T11:10:14.727Z,2.10
2023-11-24T11:12:50.655Z,2.10
2023-11-24T11:15:23.993Z,2.00
2023-11-24T11:18:16.371Z,2.10
2023-11-24T11:20:46.704Z,2.10
2023-11-24T11:23:17.178Z,2.10
2023-11-24T11:25:52.051Z,2.00
2023-11-24T11:28:19.580Z,2.00
2023-11-24T11:30:56.940Z,2.00
2023-11-24T11:33:24.338Z,1.90
2023-11-24T11:36:06.983Z,1.80
2023-11-24T11:38:45.162Z,1.80
2023-11-24T11:41:14.610Z,1.80
2023-11-24T11:43:55.631Z,1.80
2023-11-24T11:46:24.487Z,1.90
2023-11-24T11:48:53.475Z,1.90
2023-11-24T11:51:23.615Z,1.90
2023-11-24T11:53:51.760Z,2.00
2023-11-24T11:56:19.776Z,2.00
2023-11-24T11:58:46.972Z,2.10
2023-11-24T12:01:16.725Z,2.10
2023-11-24T12:03:44.453Z,2.10
2023-11-24T12:06:12.423Z,2.10
2023-11-24T12:08:42.585Z,2.10
2023-11-24T12:11:11.955Z,2.10
2023-11-24T12:13:40.814Z,2.00
2023-11-24T12:16:09.718Z,2.00
2023-11-24T12:18:37.654Z,1.90
2023-11-24T12:21:05.486Z,2.00
2023-11-24T12:23:32.765Z,2.00
2023-11-24T12:26:00.150Z,2.00
2023-11-24T12:28:27.368Z,2.10
2023-11-24T12:30:55.998Z,2.20
2023-11-24T12:33:25.912Z,2.40
2023-11-24T12:35:55.201Z,2.50
2023-11-24T12:38:23.395Z,2.60
2023-11-24T12:40:52.479Z,2.70
2023-11-24T12:43:23.004Z,2.90
2023-11-24T12:45:53.457Z,3.00
2023-11-24T12:48:25.335Z,3.20
2023-11-24T12:50:59.788Z,3.20
2023-11-24T12:53:27.180Z,3.30
2023-11-24T12:55:54.232Z,3.20
2023-11-24T12:58:21.560Z,3.10
2023-11-24T13:00:51.356Z,3.00
2023-11-24T13:03:18.588Z,2.90
2023-11-24T13:05:45.859Z,2.90
2023-11-24T13:08:13.769Z,2.80
2023-11-24T13:10:42.044Z,2.70
2023-11-24T13:13:09.355Z,2.60
2023-11-24T13:15:37.162Z,2.60
2023-11-24T13:18:05.358Z,2.60
2023-11-24T13:20:34.173Z,2.60
2023-11-24T13:23:01.484Z,2.70
2023-11-24T13:25:30.496Z,2.70
2023-11-24T13:27:58.364Z,2.70
2023-11-24T13:30:26.919Z,2.70
2023-11-24T13:32:54.937Z,2.70
2023-11-24T13:35:24.005Z,2.60
2023-11-24T13:37:51.678Z,2.60
2023-11-24T13:40:27.855Z,2.60
2023-11-24T13:42:55.646Z,2.50
2023-11-24T13:45:22.845Z,2.40
2023-11-24T13:47:51.167Z,2.40
2023-11-24T13:50:20.410Z,2.30
2023-11-24T13:52:57.638Z,2.30
2023-11-24T13:55:35.066Z,2.30
2023-11-24T13:58:03.230Z,2.30
2023-11-24T14:00:32.557Z,2.20
2023-11-24T14:03:00.523Z,2.30
2023-11-24T14:05:27.932Z,2.20
2023-11-24T14:07:55.514Z,2.20
2023-11-24T14:10:23.300Z,2.20
2023-11-24T14:12:50.685Z,2.20
2023-11-24T14:15:17.939Z,2.20
2023-11-24T14:17:45.457Z,2.20
2023-11-24T14:20:14.377Z,2.30
2023-11-24T14:22:41.629Z,2.30
2023-11-24T14:25:09.734Z,2.30
2023-11-24T14:27:39.628Z,2.40
2023-11-24T14:30:09.090Z,2.40
2023-11-24T14:32:36.353Z,2.40
2023-11-24T14:35:06.831Z,2.30
2023-11-24T14:37:34.704Z,2.30
2023-11-24T14:40:02.825Z,2.30
2023-11-24T14:42:30.500Z,2.30
2023-11-24T14:44:57.532Z,2.20
2023-11-24T14:47:24.730Z,2.20
2023-11-24T14:49:51.936Z,2.10
2023-11-24T14:52:19.676Z,2.10
2023-11-24T14:54:47.964Z,2.00
2023-11-24T14:57:17.084Z,2.00
2023-11-24T14:59:44.424Z,2.00
2023-11-24T15:02:15.006Z,2.00
2023-11-24T15:04:44.143Z,2.00
2023-11-24T15:07:11.766Z,2.00
2023-11-24T15:09:43.496Z,1.90
2023-11-24T15:12:10.885Z,1.90
2023-11-24T15:14:38.273Z,1.90
2023-11-24T15:17:06.695Z,1.90
2023-11-24T15:19:37.901Z,2.00
2023-11-24T15:22:07.753Z,1.90
2023-11-24T15:24:35.854Z,1.90
2023-11-24T15:27:05.765Z,1.90
2023-11-24T15:29:37.105Z,1.90
2023-11-24T15:32:09.275Z,1.90
2023-11-24T15:34:36.898Z,1.90
2023-11-24T15:37:05.075Z,1.90
2023-11-24T15:39:48.756Z,1.90
2023-11-24T15:42:18.757Z,1.90
2023-11-24T15:44:47.989Z,1.80
2023-11-24T15:47:16.909Z,1.80
2023-11-24T15:49:44.091Z,1.80
2023-11-24T15:52:14.982Z,1.80
2023-11-24T15:54:43.202Z,1.80
2023-11-24T15:57:11.365Z,1.90
2023-11-24T15:59:43.971Z,1.90
2023-11-24T16:02:15.032Z,1.90
2023-11-24T16:04:45.546Z,2.00
2023-11-24T16:07:18.612Z,2.00
2023-11-24T16:09:46.397Z,2.00
2023-11-24T16:12:15.179Z,2.00
2023-11-24T16:14:44.350Z,2.00
2023-11-24T16:17:11.779Z,2.00
2023-11-24T16:19:39.050Z,2.00
2023-11-24T16:22:06.871Z,2.10
2023-11-24T16:24:34.782Z,2.10
2023-11-24T16:27:04.197Z,2.10
2023-11-24T16:29:31.695Z,2.10
2023-11-24T16:32:01.123Z,2.20
2023-11-24T16:34:28.739Z,2.10
2023-11-24T16:36:59.348Z,2.10
2023-11-24T16:39:29.105Z,2.10
2023-11-24T16:41:56.433Z,2.00
2023-11-24T16:44:24.232Z,1.90
2023-11-24T16:46:59.385Z,1.80
2023-11-24T16:49:27.492Z,1.70
2023-11-24T16:51:54.994Z,1.60
2023-11-24T16:54:22.441Z,1.50
2023-11-24T16:56:50.448Z,1.50
2023-11-24T16:59:20.316Z,1.40
2023-11-24T17:01:48.138Z,1.40
2023-11-24T17:04:15.671Z,1.40
2023-11-24T17:06:43.155Z,1.40
2023-11-24T17:09:16.992Z,1.40
2023-11-24T17:11:44.687Z,1.40
2023-11-24T17:14:16.062Z,1.40
2023-11-24T17:16:46.880Z,1.40
2023-11-24T17:19:15.654Z,1.50
2023-11-24T17:21:45.105Z,1.50
2023-11-24T17:24:12.677Z,1.50
2023-11-24T17:26:41.599Z,1.50
2023-11-24T17:29:15.162Z,1.50
2023-11-24T17:31:46.385Z,1.40
2023-11-24T17:34:14.262Z,1.40
2023-11-24T17:36:41.711Z,1.40
2023-11-24T17:39:10.579Z,1.40
2023-11-24T17:41:38.694Z,1.40
2023-11-24T17:44:12.767Z,1.40
2023-11-24T17:46:44.343Z,1.40
2023-11-24T17:49:15.126Z,1.40
2023-11-24T17:51:43.284Z,1.40
2023-11-24T17:54:10.857Z,1.40
2023-11-24T17:56:38.194Z,1.40
2023-11-24T17:59:05.434Z,1.40
2023-11-24T18:01:34.129Z,1.40
2023-11-24T18:04:01.631Z,1.40
2023-11-24T18:06:30.705Z,1.40
2023-11-24T18:08:58.859Z,1.40
2023-11-24T18:11:32.839Z,1.50
2023-11-24T18:14:04.935Z,1.50
2023-11-24T18:16:32.217Z,1.40
2023-11-24T18:19:00.351Z,1.50
2023-11-24T18:21:28.285Z,1.50
2023-11-24T18:23:55.418Z,1.50
2023-11-24T18:26:22.652Z,1.50
2023-11-24T18:28:51.419Z,1.50
2023-11-24T18:31:19.184Z,1.50
2023-11-24T18:33:46.639Z,1.50
2023-11-24T18:36:13.790Z,1.50
2023-11-24T18:38:41.909Z,1.50
2023-11-24T18:41:09.395Z,1.50
2023-11-24T18:43:40.356Z,1.50
2023-11-24T18:46:08.692Z,1.50
2023-11-24T18:48:36.140Z,1.50
2023-11-24T18:51:03.410Z,1.50
2023-11-24T18:53:30.562Z,1.50
2023-11-24T18:55:59.564Z,1.60
2023-11-24T18:58:26.901Z,1.60
2023-11-24T19:00:54.192Z,1.60
2023-11-24T19:03:21.394Z,1.50
2023-11-24T19:05:48.780Z,1.50
2023-11-24T19:08:16.768Z,1.50
2023-11-24T19:10:44.665Z,1.50
2023-11-24T19:13:16.881Z,1.50
2023-11-24T19:15:46.497Z,1.50
2023-11-24T19:18:14.910Z,1.50
2023-11-24T19:20:42.427Z,1.50
2023-11-24T19:23:10.353Z,1.50
2023-11-24T19:25:37.629Z,1.50
2023-11-24T19:28:05.079Z,1.50
2023-11-24T19:30:32.246Z,1.50
2023-11-24T19:32:59.477Z,1.50
2023-11-24T19:35:26.862Z,1.40
2023-11-24T19:37:54.041Z,1.40
2023-11-24T19:40:21.261Z,1.40
2023-11-24T19:42:48.477Z,1.40
2023-11-24T19:45:15.610Z,1.50
2023-11-24T19:47:42.883Z,1.50
2023-11-24T19:50:10.339Z,1.40
2023-11-24T19:52:37.702Z,1.40
2023-11-24T19:55:05.092Z,1.40
2023-11-24T19:57:33.596Z,1.40
2023-11-24T20:00:01.090Z,1.50
2023-11-24T20:02:28.349Z,1.50
2023-11-24T20:04:57.395Z,1.40
2023-11-24T20:07:25.258Z,1.40
2023-11-24T20:09:53.604Z,1.40
2023-11-24T20:12:21.370Z,1.40
2023-11-24T20:14:50.125Z,1.40
2023-11-24T20:17:17.428Z,1.40
2023-11-24T20:19:44.804Z,1.40
2023-11-24T20:22:12.021Z,1.40
2023-11-24T20:24:40.881Z,1.40
2023-11-24T20:27:07.912Z,1.50
2023-11-24T20:29:35.051Z,1.50
2023-11-24T20:32:02.262Z,1.50
2023-11-24T20:34:29.519Z,1.50
2023-11-24T20:36:56.909Z,1.50
2023-11-24T20:39:24.358Z,1.50
2023-11-24T20:41:51.805Z,1.50
2023-11-24T20:44:19.277Z,1.50
2023-11-24T20:46:46.817Z,1.50
2023-11-24T20:49:14.177Z,1.50
2023-11-24T20:51:42.558Z,1.50
2023-11-24T20:54:09.798Z,1.50
2023-11-24T20:56:37.590Z,1.50
2023-11-24T20:59:05.243Z,1.50
2023-11-24T21:01:32.617Z,1.50
2023-11-24T21:03:59.882Z,1.50
2023-11-24T21:06:27.157Z,1.50
2023-11-24T21:09:01.633Z,1.60
2023-11-24T21:11:28.977Z,1.60
2023-11-24T21:13:58.795Z,1.60
2023-11-24T21:16:29.682Z,1.60
2023-11-24T21:18:56.918Z,1.60
2023-11-24T21:21:24.713Z,1.60
2023-11-24T21:23:52.117Z,1.60
2023-11-24T21:26:19.841Z,1.60
2023-11-24T21:28:47.059Z,1.60
2023-11-24T21:31:18.228Z,1.60
2023-11-24T21:33:45.958Z,1.50
2023-11-24T21:36:13.158Z,1.40
2023-11-24T21:38:40.404Z,1.40
2023-11-24T21:41:07.569Z,1.30
2023-11-24T21:43:34.845Z,1.40
2023-11-24T21:46:02.125Z,1.30
2023-11-24T21:48:32.713Z,1.30
2023-11-24T21:51:05.193Z,1.30
2023-11-24T21:53:32.290Z,1.40
2023-11-24T21:56:02.436Z,1.30
2023-11-24T21:58:30.021Z,1.40
2023-11-24T22:00:57.267Z,1.40
2023-11-24T22:03:24.745Z,1.40
2023-11-24T22:05:52.964Z,1.40
2023-11-24T22:08:22.900Z,1.40
2023-11-24T22:10:54.312Z,1.40
2023-11-24T22:13:21.542Z,1.40
2023-11-24T22:15:50.579Z,1.50
2023-11-24T22:18:18.968Z,1.50
2023-11-24T22:20:46.138Z,1.50
2023-11-24T22:23:13.806Z,1.40
2023-11-24T22:25:41.055Z,1.40
2023-11-24T22:28:09.689Z,1.40
2023-11-24T22:30:37.512Z,1.40
2023-11-24T22:33:04.794Z,1.40
2023-11-24T22:35:32.221Z,1.40
2023-11-24T22:38:01.189Z,1.40
2023-11-24T22:40:28.960Z,1.40
2023-11-24T22:42:56.674Z,1.40
2023-11-24T22:45:24.126Z,1.40
2023-11-24T22:47:52.023Z,1.40
2023-11-24T22:50:19.257Z,1.30
2023-11-24T22:52:46.530Z,1.30
2023-11-24T22:55:13.705Z,1.40
2023-11-24T22:57:42.498Z,1.30
2023-11-24T23:00:30.244Z,1.30
2023-11-24T23:02:58.026Z,1.30
2023-11-24T23:05:26.185Z,1.30
2023-11-24T23:07:53.546Z,1.30
2023-11-24T23:10:22.813Z,1.30
2023-11-24T23:12:49.940Z,1.30
2023-11-24T23:15:17.958Z,1.30
2023-11-24T23:17:45.907Z,1.20
2023-11-24T23:20:15.664Z,1.20
2023-11-24T23:22:43.953Z,1.20
2023-11-24T23:25:12.331Z,1.20
2023-11-24T23:27:40.578Z,1.20
2023-11-24T23:30:09.609Z,1.20
2023-11-24T23:32:37.148Z,1.20
2023-11-24T23:35:05.645Z,1.20
2023-11-24T23:37:33.885Z,1.20
2023-11-24T23:40:01.293Z,1.20
2023-11-24T23:42:30.055Z,1.20
2023-11-24T23:44:57.322Z,1.10
2023-11-24T23:47:24.484Z,1.10
2023-11-24T23:49:51.854Z,1.10
2023-11-24T23:52:18.912Z,1.10
2023-11-24T23:54:46.086Z,1.10
2023-11-24T23:57:13.492Z,1.10
2023-11-24T23:59:40.656Z,1.10
